createdAt,value
2022-10-13T00:00:07.207Z,5.94
2022-10-13T00:01:34.084Z,5.91
2022-10-13T00:02:36.300Z,5.91
2022-10-13T00:03:42.786Z,5.79
2022-10-13T00:04:52.391Z,5.91
2022-10-13T00:05:58.530Z,5.91
2022-10-13T00:07:02.032Z,5.91
2022-10-13T00:08:09.873Z,5.89
2022-10-13T00:09:20.327Z,5.90
2022-10-13T00:10:22.569Z,5.90
2022-10-13T00:11:29.719Z,5.87
2022-10-13T00:12:40.879Z,5.87
2022-10-13T00:13:44.184Z,5.87
2022-10-13T00:14:48.188Z,5.86
2022-10-13T00:15:50.139Z,5.85
2022-10-13T00:16:52.260Z,5.85
2022-10-13T00:17:53.995Z,5.86
2022-10-13T00:18:56.296Z,5.86
2022-10-13T00:20:05.094Z,5.86
2022-10-13T00:21:13.675Z,5.85
2022-10-13T00:22:15.735Z,5.87
2022-10-13T00:23:19.616Z,5.86
2022-10-13T00:24:21.628Z,5.86
2022-10-13T00:25:25.594Z,5.87
2022-10-13T00:26:27.405Z,5.87
2022-10-13T00:27:29.272Z,5.87
2022-10-13T00:28:31.277Z,5.87
2022-10-13T00:29:33.045Z,5.86
2022-10-13T00:30:35.982Z,5.85
2022-10-13T00:31:37.802Z,5.85
2022-10-13T00:32:41.218Z,5.85
2022-10-13T00:33:43.365Z,5.86
2022-10-13T00:34:45.374Z,5.86
2022-10-13T00:35:48.856Z,5.85
2022-10-13T00:36:52.704Z,5.85
2022-10-13T00:37:54.571Z,5.84
2022-10-13T00:38:56.971Z,5.85
2022-10-13T00:39:59.187Z,5.84
2022-10-13T00:41:01.180Z,5.84
2022-10-13T00:42:04.037Z,5.84
2022-10-13T00:43:16.896Z,5.84
2022-10-13T00:44:56.034Z,5.83
2022-10-13T00:45:57.919Z,5.80
2022-10-13T00:47:00.026Z,5.81
2022-10-13T00:48:02.258Z,5.80
2022-10-13T00:49:13.920Z,5.80
2022-10-13T00:50:25.308Z,5.77
2022-10-13T00:51:34.294Z,5.78
2022-10-13T00:52:39.783Z,5.79
2022-10-13T00:53:44.245Z,5.78
2022-10-13T00:54:49.440Z,5.78
2022-10-13T00:55:53.594Z,5.78
2022-10-13T00:56:57.297Z,5.79
2022-10-13T00:58:05.526Z,5.80
2022-10-13T00:59:22.365Z,5.80
2022-10-13T01:00:25.078Z,5.79
2022-10-13T01:01:27.194Z,5.80
2022-10-13T01:02:32.275Z,5.79
2022-10-13T01:03:34.856Z,5.75
2022-10-13T01:04:41.591Z,5.74
2022-10-13T01:05:44.304Z,5.72
2022-10-13T01:06:49.404Z,5.70
2022-10-13T01:07:53.200Z,5.71
2022-10-13T01:08:54.894Z,5.70
2022-10-13T01:09:57.831Z,5.69
2022-10-13T01:11:15.465Z,5.69
2022-10-13T01:12:24.279Z,5.69
2022-10-13T01:13:58.329Z,5.68
2022-10-13T01:15:11.700Z,5.68
2022-10-13T01:16:40.617Z,5.69
2022-10-13T01:18:05.786Z,5.70
2022-10-13T01:19:37.144Z,5.70
2022-10-13T01:20:47.918Z,5.69
2022-10-13T01:22:07.221Z,5.70
2022-10-13T01:23:23.525Z,5.70
2022-10-13T01:24:28.199Z,5.70
2022-10-13T01:25:41.904Z,5.71
2022-10-13T01:26:55.999Z,5.72
2022-10-13T01:28:03.949Z,5.70
2022-10-13T01:29:47.406Z,5.70
2022-10-13T01:30:59.996Z,5.68
2022-10-13T01:32:11.649Z,5.67
2022-10-13T01:33:21.966Z,5.66
2022-10-13T01:34:36.885Z,5.66
2022-10-13T01:36:02.860Z,5.66
2022-10-13T01:37:30.655Z,5.65
2022-10-13T01:38:38.285Z,5.62
2022-10-13T01:39:44.995Z,5.63
2022-10-13T01:41:12.950Z,5.65
2022-10-13T01:42:25.434Z,5.61
2022-10-13T01:43:43.955Z,5.57
2022-10-13T01:44:51.179Z,5.54
2022-10-13T01:46:09.615Z,5.53
2022-10-13T01:47:14.939Z,5.52
2022-10-13T01:48:18.904Z,5.51
2022-10-13T01:49:27.939Z,5.49
2022-10-13T01:50:31.994Z,5.51
2022-10-13T01:51:34.989Z,5.50
2022-10-13T01:52:38.783Z,5.49
2022-10-13T01:53:42.082Z,5.49
2022-10-13T01:54:48.849Z,5.50
2022-10-13T01:55:51.594Z,5.49
2022-10-13T01:57:02.589Z,5.48
2022-10-13T01:58:04.669Z,5.48
2022-10-13T01:59:12.724Z,5.48
2022-10-13T02:00:20.873Z,5.48
2022-10-13T02:01:40.599Z,5.49
2022-10-13T02:03:04.186Z,5.48
2022-10-13T02:04:09.174Z,5.48
2022-10-13T02:05:20.976Z,5.49
2022-10-13T02:06:26.786Z,5.49
2022-10-13T02:07:40.639Z,5.50
2022-10-13T02:08:53.626Z,5.50
2022-10-13T02:10:20.214Z,5.51
2022-10-13T02:11:24.115Z,5.50
2022-10-13T02:12:51.004Z,5.51
2022-10-13T02:14:05.239Z,5.51
2022-10-13T02:15:11.961Z,5.50
2022-10-13T02:16:15.494Z,5.50
2022-10-13T02:17:17.764Z,5.50
2022-10-13T02:18:29.849Z,5.50
2022-10-13T02:19:37.231Z,5.50
2022-10-13T02:20:41.623Z,5.49
2022-10-13T02:21:44.889Z,5.49
2022-10-13T02:22:50.859Z,5.49
2022-10-13T02:23:52.704Z,5.48
2022-10-13T02:24:55.269Z,5.47
2022-10-13T02:25:59.043Z,5.47
2022-10-13T02:27:01.545Z,5.45
2022-10-13T02:28:04.861Z,5.46
2022-10-13T02:29:09.446Z,5.46
2022-10-13T02:30:20.524Z,5.47
2022-10-13T02:31:23.160Z,5.46
2022-10-13T02:32:25.606Z,5.47
2022-10-13T02:33:28.504Z,5.47
2022-10-13T02:34:30.467Z,5.48
2022-10-13T02:35:33.155Z,5.48
2022-10-13T02:36:39.662Z,5.48
2022-10-13T02:37:41.474Z,5.48
2022-10-13T02:38:43.899Z,5.49
2022-10-13T02:39:45.860Z,5.48
2022-10-13T02:40:48.870Z,5.49
2022-10-13T02:41:50.645Z,5.49
2022-10-13T02:42:52.659Z,5.49
2022-10-13T02:43:54.696Z,5.48
2022-10-13T02:44:59.116Z,5.49
2022-10-13T02:46:01.113Z,5.49
2022-10-13T02:47:03.146Z,5.49
2022-10-13T02:48:07.554Z,5.49
2022-10-13T02:49:10.322Z,5.49
2022-10-13T02:50:12.634Z,5.50
2022-10-13T02:51:15.919Z,5.48
2022-10-13T02:52:17.940Z,5.49
2022-10-13T02:53:20.034Z,5.49
2022-10-13T02:54:21.836Z,5.49
2022-10-13T02:55:23.686Z,5.48
2022-10-13T02:56:32.526Z,5.48
2022-10-13T02:57:35.314Z,5.48
2022-10-13T02:58:37.050Z,5.47
2022-10-13T02:59:38.871Z,5.47
2022-10-13T03:00:40.747Z,5.47
2022-10-13T03:01:44.015Z,5.46
2022-10-13T03:02:46.128Z,5.45
2022-10-13T03:03:47.904Z,5.44
2022-10-13T03:04:52.464Z,5.44
2022-10-13T03:05:54.214Z,5.41
2022-10-13T03:06:56.640Z,5.34
2022-10-13T03:07:58.705Z,5.42
2022-10-13T03:09:00.576Z,5.42
2022-10-13T03:10:03.419Z,5.41
2022-10-13T03:11:06.796Z,5.40
2022-10-13T03:12:08.870Z,5.35
2022-10-13T03:13:10.615Z,5.34
2022-10-13T03:14:12.699Z,5.31
2022-10-13T03:15:15.002Z,5.30
2022-10-13T03:16:16.809Z,5.29
2022-10-13T03:17:18.660Z,5.30
2022-10-13T03:18:20.678Z,5.29
2022-10-13T03:19:23.309Z,5.28
2022-10-13T03:20:25.227Z,5.28
2022-10-13T03:21:27.026Z,5.27
2022-10-13T03:22:31.620Z,5.25
2022-10-13T03:23:33.861Z,5.26
2022-10-13T03:24:35.698Z,5.27
2022-10-13T03:25:37.766Z,5.28
2022-10-13T03:26:39.506Z,5.28
2022-10-13T03:27:41.324Z,5.29
2022-10-13T03:28:43.384Z,5.29
2022-10-13T03:29:45.354Z,5.30
2022-10-13T03:30:47.209Z,5.30
2022-10-13T03:31:49.182Z,5.30
2022-10-13T03:32:51.018Z,5.26
2022-10-13T03:33:52.889Z,5.33
2022-10-13T03:34:54.764Z,5.31
2022-10-13T03:36:01.412Z,5.34
2022-10-13T03:37:03.634Z,5.38
2022-10-13T03:38:09.549Z,5.37
2022-10-13T03:39:12.979Z,5.44
2022-10-13T03:40:15.071Z,5.44
2022-10-13T03:41:18.190Z,5.33
2022-10-13T03:42:24.566Z,5.39
2022-10-13T03:43:26.429Z,5.40
2022-10-13T03:44:28.690Z,5.29
2022-10-13T03:45:30.866Z,5.26
2022-10-13T03:46:33.298Z,5.24
2022-10-13T03:47:44.601Z,5.24
2022-10-13T03:48:47.600Z,5.24
2022-10-13T03:49:49.689Z,5.24
2022-10-13T03:50:55.269Z,5.24
2022-10-13T03:51:57.102Z,5.25
2022-10-13T03:52:59.396Z,5.25
2022-10-13T03:54:01.250Z,5.27
2022-10-13T03:55:03.471Z,5.29
2022-10-13T03:56:07.276Z,5.30
2022-10-13T03:57:10.394Z,5.33
2022-10-13T03:58:13.404Z,5.34
2022-10-13T03:59:18.114Z,5.34
2022-10-13T04:00:20.329Z,5.37
2022-10-13T04:01:27.099Z,5.39
2022-10-13T04:02:28.965Z,5.41
2022-10-13T04:03:33.951Z,5.42
2022-10-13T04:04:37.515Z,5.44
2022-10-13T04:05:40.126Z,5.47
2022-10-13T04:06:44.654Z,5.50
2022-10-13T04:07:46.449Z,5.45
2022-10-13T04:08:54.061Z,5.49
2022-10-13T04:09:55.800Z,5.49
2022-10-13T04:11:11.883Z,5.50
2022-10-13T04:12:18.386Z,5.49
2022-10-13T04:13:22.526Z,5.50
2022-10-13T04:14:26.746Z,5.53
2022-10-13T04:15:37.339Z,5.54
2022-10-13T04:16:39.982Z,5.55
2022-10-13T04:17:41.825Z,5.58
2022-10-13T04:18:45.297Z,5.60
2022-10-13T04:19:47.086Z,5.63
2022-10-13T04:20:48.834Z,5.67
2022-10-13T04:21:51.066Z,5.70
2022-10-13T04:22:52.818Z,5.73
2022-10-13T04:23:58.791Z,5.77
2022-10-13T04:25:00.579Z,5.82
2022-10-13T04:26:04.077Z,5.86
2022-10-13T04:27:05.936Z,5.89
2022-10-13T04:28:07.690Z,5.92
2022-10-13T04:29:12.005Z,5.97
2022-10-13T04:30:17.095Z,6.00
2022-10-13T04:31:21.489Z,6.03
2022-10-13T04:32:25.210Z,6.09
2022-10-13T04:33:27.181Z,6.14
2022-10-13T04:34:29.043Z,6.18
2022-10-13T04:35:31.413Z,6.23
2022-10-13T04:36:33.275Z,6.27
2022-10-13T04:37:35.344Z,6.31
2022-10-13T04:38:38.017Z,6.34
2022-10-13T04:39:39.931Z,6.38
2022-10-13T04:40:41.744Z,6.43
2022-10-13T04:41:43.653Z,6.47
2022-10-13T04:42:45.544Z,6.52
2022-10-13T04:43:51.576Z,6.57
2022-10-13T04:44:53.453Z,6.61
2022-10-13T04:46:06.920Z,6.66
2022-10-13T04:47:09.085Z,6.70
2022-10-13T04:48:10.972Z,6.73
2022-10-13T04:49:16.631Z,6.79
2022-10-13T04:50:19.369Z,6.83
2022-10-13T04:51:24.391Z,6.83
2022-10-13T04:52:26.338Z,6.87
2022-10-13T04:53:30.857Z,6.88
2022-10-13T04:54:33.915Z,6.88
2022-10-13T04:55:36.710Z,6.94
2022-10-13T04:56:38.605Z,6.97
2022-10-13T04:57:40.402Z,7.00
2022-10-13T04:58:44.059Z,7.00
2022-10-13T04:59:46.221Z,7.07
2022-10-13T05:00:48.552Z,7.07
2022-10-13T05:01:50.516Z,7.14
2022-10-13T05:02:53.250Z,7.15
2022-10-13T05:03:58.499Z,7.19
2022-10-13T05:05:00.422Z,7.24
2022-10-13T05:06:02.211Z,7.27
2022-10-13T05:07:17.610Z,7.31
2022-10-13T05:08:22.059Z,7.33
2022-10-13T05:09:24.032Z,7.36
2022-10-13T05:10:25.991Z,7.40
2022-10-13T05:11:28.702Z,7.44
2022-10-13T05:12:30.425Z,7.47
2022-10-13T05:13:34.854Z,7.50
2022-10-13T05:14:36.668Z,7.52
2022-10-13T05:15:43.015Z,7.55
2022-10-13T05:16:44.709Z,7.59
2022-10-13T05:17:49.596Z,7.60
2022-10-13T05:18:54.849Z,7.63
2022-10-13T05:19:56.844Z,7.66
2022-10-13T05:21:06.508Z,7.68
2022-10-13T05:22:08.765Z,7.71
2022-10-13T05:23:10.671Z,7.78
2022-10-13T05:24:13.150Z,7.83
2022-10-13T05:25:16.190Z,7.87
2022-10-13T05:26:18.203Z,7.91
2022-10-13T05:27:20.875Z,7.97
2022-10-13T05:28:22.687Z,8.01
2022-10-13T05:29:24.607Z,8.05
2022-10-13T05:30:26.611Z,8.09
2022-10-13T05:31:29.758Z,8.12
2022-10-13T05:32:35.395Z,8.15
2022-10-13T05:33:37.469Z,8.17
2022-10-13T05:34:39.221Z,8.18
2022-10-13T05:35:43.225Z,8.20
2022-10-13T05:36:44.951Z,8.23
2022-10-13T05:37:46.707Z,8.25
2022-10-13T05:38:53.136Z,8.28
2022-10-13T05:39:54.974Z,8.31
2022-10-13T05:41:02.487Z,8.33
2022-10-13T05:42:04.639Z,8.35
2022-10-13T05:43:06.434Z,8.37
2022-10-13T05:44:09.315Z,8.41
2022-10-13T05:45:17.868Z,8.44
2022-10-13T05:46:23.716Z,8.46
2022-10-13T05:47:30.528Z,8.48
2022-10-13T05:48:32.335Z,8.52
2022-10-13T05:49:35.932Z,8.54
2022-10-13T05:50:38.095Z,8.56
2022-10-13T05:51:47.776Z,8.58
2022-10-13T05:52:51.348Z,8.60
2022-10-13T05:54:00.296Z,8.63
2022-10-13T05:55:06.113Z,8.68
2022-10-13T05:56:14.051Z,8.71
2022-10-13T05:57:23.625Z,8.76
2022-10-13T05:58:25.555Z,8.77
2022-10-13T05:59:32.009Z,8.80
2022-10-13T06:00:34.179Z,8.82
2022-10-13T06:01:39.198Z,8.88
2022-10-13T06:03:04.312Z,8.93
2022-10-13T06:04:14.859Z,8.97
2022-10-13T06:05:19.637Z,9.00
2022-10-13T06:06:29.139Z,9.06
2022-10-13T06:07:33.140Z,9.10
2022-10-13T06:08:36.630Z,9.13
2022-10-13T06:09:39.735Z,9.17
2022-10-13T06:10:42.970Z,9.20
2022-10-13T06:11:45.431Z,9.21
2022-10-13T06:12:47.728Z,9.26
2022-10-13T06:13:52.681Z,9.32
2022-10-13T06:14:55.076Z,9.33
2022-10-13T06:15:59.689Z,9.36
2022-10-13T06:17:01.716Z,9.38
2022-10-13T06:18:07.608Z,9.45
2022-10-13T06:19:09.454Z,9.45
2022-10-13T06:20:11.483Z,9.38
2022-10-13T06:21:13.364Z,9.52
2022-10-13T06:22:15.117Z,9.52
2022-10-13T06:23:17.171Z,9.55
2022-10-13T06:24:18.961Z,9.60
2022-10-13T06:25:20.817Z,9.62
2022-10-13T06:26:22.655Z,9.60
2022-10-13T06:27:24.470Z,9.63
2022-10-13T06:28:28.381Z,9.63
2022-10-13T06:29:30.184Z,9.56
2022-10-13T06:30:32.300Z,9.63
2022-10-13T06:31:34.303Z,9.68
2022-10-13T06:32:36.123Z,9.68
2022-10-13T06:33:37.939Z,9.71
2022-10-13T06:34:39.838Z,9.69
2022-10-13T06:35:44.896Z,9.73
2022-10-13T06:36:46.828Z,9.73
2022-10-13T06:37:52.640Z,9.75
2022-10-13T06:38:56.796Z,9.71
2022-10-13T06:39:58.750Z,9.69
2022-10-13T06:41:04.837Z,9.67
2022-10-13T06:42:07.984Z,9.64
2022-10-13T06:43:12.965Z,9.63
2022-10-13T06:44:19.690Z,9.67
2022-10-13T06:45:21.655Z,9.67
2022-10-13T06:46:23.441Z,9.69
2022-10-13T06:47:25.328Z,9.69
2022-10-13T06:48:29.935Z,9.70
2022-10-13T06:49:39.905Z,9.74
2022-10-13T06:50:48.419Z,9.74
2022-10-13T06:51:50.593Z,9.73
2022-10-13T06:52:52.441Z,9.74
2022-10-13T06:53:57.081Z,9.71
2022-10-13T06:55:00.854Z,9.77
2022-10-13T06:56:07.274Z,9.78
2022-10-13T06:57:08.993Z,9.80
2022-10-13T06:58:10.926Z,9.83
2022-10-13T06:59:12.840Z,9.83
2022-10-13T07:00:18.142Z,9.89
2022-10-13T07:01:21.503Z,9.92
2022-10-13T07:02:23.435Z,9.90
2022-10-13T07:03:25.842Z,9.91
2022-10-13T07:04:27.820Z,9.94
2022-10-13T07:05:32.571Z,9.94
2022-10-13T07:06:34.585Z,9.99
2022-10-13T07:07:36.530Z,10.01
2022-10-13T07:08:38.311Z,10.03
2022-10-13T07:09:40.442Z,10.02
2022-10-13T07:10:46.329Z,10.09
2022-10-13T07:11:49.170Z,10.07
2022-10-13T07:12:50.928Z,10.07
2022-10-13T07:13:53.698Z,10.10
2022-10-13T07:14:56.960Z,10.14
2022-10-13T07:15:58.961Z,10.16
2022-10-13T07:17:00.930Z,10.14
2022-10-13T07:18:02.903Z,10.14
2022-10-13T07:19:05.625Z,10.15
2022-10-13T07:20:08.967Z,10.20
2022-10-13T07:21:10.872Z,10.23
2022-10-13T07:22:12.742Z,10.25
2022-10-13T07:23:14.544Z,10.26
2022-10-13T07:24:16.449Z,10.30
2022-10-13T07:25:19.135Z,10.37
2022-10-13T07:26:20.919Z,10.39
2022-10-13T07:27:24.141Z,10.40
2022-10-13T07:28:26.741Z,10.41
2022-10-13T07:29:28.596Z,10.42
2022-10-13T07:30:32.574Z,10.44
2022-10-13T07:31:34.429Z,10.41
2022-10-13T07:32:36.380Z,10.43
2022-10-13T07:33:43.699Z,10.42
2022-10-13T07:34:45.661Z,10.43
2022-10-13T07:35:47.722Z,10.43
2022-10-13T07:36:49.721Z,10.49
2022-10-13T07:37:54.512Z,10.53
2022-10-13T07:38:56.437Z,10.52
2022-10-13T07:39:59.999Z,10.54
2022-10-13T07:41:05.824Z,10.53
2022-10-13T07:42:07.700Z,10.56
2022-10-13T07:43:09.655Z,10.56
2022-10-13T07:44:11.608Z,10.55
2022-10-13T07:45:13.936Z,10.51
2022-10-13T07:46:15.785Z,10.53
2022-10-13T07:47:17.783Z,10.59
2022-10-13T07:48:19.896Z,10.59
2022-10-13T07:49:23.336Z,10.55
2022-10-13T07:50:25.156Z,10.59
2022-10-13T07:51:26.995Z,10.63
2022-10-13T07:52:29.054Z,10.59
2022-10-13T07:53:31.011Z,10.61
2022-10-13T07:54:32.893Z,10.62
2022-10-13T07:55:35.834Z,10.57
2022-10-13T07:56:37.885Z,10.54
2022-10-13T07:57:39.885Z,10.50
2022-10-13T07:58:46.549Z,10.50
2022-10-13T07:59:48.343Z,10.50
2022-10-13T08:00:59.568Z,10.49
2022-10-13T08:02:01.813Z,10.44
2022-10-13T08:03:03.849Z,10.46
2022-10-13T08:04:06.479Z,10.47
2022-10-13T08:05:08.480Z,10.50
2022-10-13T08:06:10.475Z,10.54
2022-10-13T08:07:15.054Z,10.55
2022-10-13T08:08:16.904Z,10.57
2022-10-13T08:09:18.743Z,10.65
2022-10-13T08:10:20.812Z,10.64
2022-10-13T08:11:22.660Z,10.65
2022-10-13T08:12:25.049Z,10.71
2022-10-13T08:13:26.904Z,10.72
2022-10-13T08:14:30.237Z,10.71
2022-10-13T08:15:32.059Z,10.72
2022-10-13T08:16:33.878Z,10.70
2022-10-13T08:17:36.523Z,10.73
2022-10-13T08:18:38.350Z,10.76
2022-10-13T08:19:43.347Z,10.78
2022-10-13T08:20:46.153Z,10.85
2022-10-13T08:22:07.801Z,10.86
2022-10-13T08:23:13.065Z,10.77
2022-10-13T08:24:19.314Z,10.77
2022-10-13T08:25:21.254Z,10.81
2022-10-13T08:26:25.759Z,10.82
2022-10-13T08:27:42.211Z,10.79
2022-10-13T08:29:09.474Z,10.80
2022-10-13T08:30:13.400Z,10.87
2022-10-13T08:31:16.561Z,10.92
2022-10-13T08:32:20.743Z,10.90
2022-10-13T08:33:24.359Z,10.88
2022-10-13T08:34:27.067Z,10.86
2022-10-13T08:35:34.055Z,10.82
2022-10-13T08:36:40.313Z,10.88
2022-10-13T08:37:42.270Z,10.86
2022-10-13T08:38:44.786Z,10.87
2022-10-13T08:39:47.189Z,10.87
2022-10-13T08:40:50.238Z,10.97
2022-10-13T08:41:53.920Z,10.99
2022-10-13T08:43:00.419Z,10.97
2022-10-13T08:44:59.186Z,10.97
2022-10-13T08:45:41.746Z,11.02
2022-10-13T08:46:59.372Z,11.05
2022-10-13T08:48:06.896Z,11.08
2022-10-13T08:49:08.824Z,11.09
2022-10-13T08:50:15.679Z,11.18
2022-10-13T08:51:18.859Z,11.23
2022-10-13T08:52:26.475Z,11.25
2022-10-13T08:53:35.785Z,11.26
2022-10-13T08:54:37.911Z,11.33
2022-10-13T08:55:44.545Z,11.40
2022-10-13T08:56:50.468Z,11.45
2022-10-13T08:57:52.533Z,11.48
2022-10-13T08:59:01.079Z,11.47
2022-10-13T09:00:04.857Z,11.49
2022-10-13T09:01:09.860Z,11.58
2022-10-13T09:02:22.619Z,11.64
2022-10-13T09:03:28.305Z,11.65
2022-10-13T09:04:35.960Z,11.72
2022-10-13T09:05:48.329Z,11.78
2022-10-13T09:06:58.071Z,11.82
2022-10-13T09:07:59.986Z,11.85
2022-10-13T09:09:11.001Z,11.89
2022-10-13T09:10:15.086Z,11.94
2022-10-13T09:11:17.059Z,11.98
2022-10-13T09:12:23.796Z,12.01
2022-10-13T09:13:26.610Z,12.03
2022-10-13T09:14:37.284Z,12.07
2022-10-13T09:15:51.806Z,12.12
2022-10-13T09:16:55.927Z,12.14
2022-10-13T09:18:10.299Z,12.12
2022-10-13T09:19:29.694Z,12.14
2022-10-13T09:20:31.572Z,12.16
2022-10-13T09:21:34.544Z,12.20
2022-10-13T09:22:40.052Z,12.24
2022-10-13T09:23:42.131Z,12.29
2022-10-13T09:24:44.112Z,12.23
2022-10-13T09:25:51.953Z,12.33
2022-10-13T09:27:06.885Z,12.37
2022-10-13T09:28:24.041Z,12.45
2022-10-13T09:29:26.487Z,12.46
2022-10-13T09:30:40.159Z,12.50
2022-10-13T09:31:42.196Z,12.58
2022-10-13T09:32:45.569Z,12.68
2022-10-13T09:33:59.267Z,12.85
2022-10-13T09:35:20.299Z,13.11
2022-10-13T09:36:22.209Z,13.34
2022-10-13T09:37:25.287Z,13.46
2022-10-13T09:38:27.831Z,13.61
2022-10-13T09:39:30.905Z,13.80
2022-10-13T09:40:33.670Z,13.88
2022-10-13T09:41:35.821Z,13.91
2022-10-13T09:42:37.970Z,13.95
2022-10-13T09:43:47.718Z,14.02
2022-10-13T09:45:20.915Z,14.09
2022-10-13T09:46:26.916Z,14.17
2022-10-13T09:47:32.621Z,14.24
2022-10-13T09:48:41.874Z,14.29
2022-10-13T09:49:44.915Z,14.33
2022-10-13T09:50:52.989Z,14.38
2022-10-13T09:52:02.260Z,14.43
2022-10-13T09:53:34.189Z,14.49
2022-10-13T09:54:38.522Z,14.52
2022-10-13T09:55:43.807Z,14.52
2022-10-13T09:56:55.404Z,14.54
2022-10-13T09:58:05.548Z,14.55
2022-10-13T09:59:34.968Z,14.57
2022-10-13T10:00:37.469Z,14.63
2022-10-13T10:01:47.260Z,14.63
2022-10-13T10:03:07.121Z,14.57
2022-10-13T10:04:22.404Z,14.58
2022-10-13T10:05:29.420Z,14.59
2022-10-13T10:06:31.195Z,14.65
2022-10-13T10:07:33.639Z,14.68
2022-10-13T10:09:04.131Z,14.72
2022-10-13T10:10:34.804Z,14.75
2022-10-13T10:11:41.804Z,14.78
2022-10-13T10:12:44.424Z,14.77
2022-10-13T10:13:47.392Z,14.83
2022-10-13T10:14:50.000Z,14.81
2022-10-13T10:16:24.307Z,14.89
2022-10-13T10:17:36.282Z,14.97
2022-10-13T10:19:00.032Z,15.11
2022-10-13T10:20:37.845Z,15.28
2022-10-13T10:21:51.332Z,15.46
2022-10-13T10:23:19.711Z,15.58
2022-10-13T10:24:31.619Z,15.73
2022-10-13T10:25:39.492Z,15.83
2022-10-13T10:27:14.230Z,15.93
2022-10-13T10:28:22.380Z,16.04
2022-10-13T10:29:28.825Z,16.12
2022-10-13T10:30:33.753Z,16.17
2022-10-13T10:31:38.185Z,16.22
2022-10-13T10:32:48.894Z,16.25
2022-10-13T10:34:29.329Z,16.29
2022-10-13T10:35:40.799Z,16.23
2022-10-13T10:37:01.616Z,16.23
2022-10-13T10:38:29.977Z,16.21
2022-10-13T10:39:37.718Z,16.16
2022-10-13T10:40:58.789Z,16.11
2022-10-13T10:42:19.743Z,16.22
2022-10-13T10:43:49.407Z,16.33
2022-10-13T10:44:57.252Z,16.48
2022-10-13T10:46:00.750Z,16.63
2022-10-13T10:47:14.110Z,16.73
2022-10-13T10:48:22.661Z,16.91
2022-10-13T10:49:32.109Z,16.98
2022-10-13T10:50:37.378Z,17.05
2022-10-13T10:51:39.288Z,17.18
2022-10-13T10:53:03.803Z,17.32
2022-10-13T10:54:20.763Z,17.72
2022-10-13T10:55:35.012Z,18.00
2022-10-13T10:56:39.007Z,18.25
2022-10-13T10:58:09.666Z,18.55
2022-10-13T10:59:29.989Z,18.92
2022-10-13T11:00:40.875Z,19.14
2022-10-13T11:01:53.451Z,19.31
2022-10-13T11:03:19.779Z,19.34
2022-10-13T11:04:45.028Z,19.43
2022-10-13T11:06:03.353Z,19.54
2022-10-13T11:07:20.336Z,19.61
2022-10-13T11:08:37.348Z,19.65
2022-10-13T11:09:43.080Z,19.50
2022-10-13T11:10:44.950Z,19.42
2022-10-13T11:11:48.530Z,19.46
2022-10-13T11:12:52.944Z,19.55
2022-10-13T11:14:01.272Z,19.59
2022-10-13T11:15:11.072Z,19.79
2022-10-13T11:16:29.534Z,19.90
2022-10-13T11:17:37.347Z,20.00
2022-10-13T11:18:54.414Z,20.11
2022-10-13T11:20:00.140Z,20.18
2022-10-13T11:21:01.994Z,20.21
2022-10-13T11:22:03.803Z,20.23
2022-10-13T11:23:12.270Z,20.25
2022-10-13T11:24:39.111Z,20.26
2022-10-13T11:25:48.325Z,20.23
2022-10-13T11:26:50.748Z,20.27
2022-10-13T11:27:53.784Z,20.28
2022-10-13T11:28:55.987Z,20.37
2022-10-13T11:30:00.841Z,20.53
2022-10-13T11:31:14.764Z,20.66
2022-10-13T11:32:44.750Z,20.76
2022-10-13T11:34:06.763Z,20.87
2022-10-13T11:35:11.397Z,21.09
2022-10-13T11:36:34.842Z,21.34
2022-10-13T11:38:06.709Z,21.64
2022-10-13T11:39:26.159Z,21.56
2022-10-13T11:40:55.774Z,21.59
2022-10-13T11:42:16.207Z,21.81
2022-10-13T11:43:20.740Z,21.66
2022-10-13T11:44:35.428Z,21.59
2022-10-13T11:45:46.187Z,21.59
2022-10-13T11:46:50.961Z,21.62
2022-10-13T11:48:04.751Z,21.60
2022-10-13T11:49:29.734Z,21.49
2022-10-13T11:50:47.927Z,21.41
2022-10-13T11:51:52.753Z,21.58
2022-10-13T11:53:11.919Z,21.60
2022-10-13T11:54:36.233Z,21.83
2022-10-13T11:55:44.194Z,22.18
2022-10-13T11:56:50.910Z,22.50
2022-10-13T11:58:14.397Z,22.48
2022-10-13T11:59:34.554Z,22.47
2022-10-13T12:00:36.470Z,22.51
2022-10-13T12:01:44.212Z,22.55
2022-10-13T12:02:50.808Z,22.62
2022-10-13T12:03:57.305Z,22.69
2022-10-13T12:05:19.632Z,22.77
2022-10-13T12:06:32.882Z,22.82
2022-10-13T12:07:39.055Z,22.74
2022-10-13T12:08:47.749Z,22.71
2022-10-13T12:09:52.769Z,22.69
2022-10-13T12:10:59.451Z,22.64
2022-10-13T12:12:12.197Z,22.73
2022-10-13T12:13:29.112Z,22.73
2022-10-13T12:14:46.605Z,22.72
2022-10-13T12:15:59.545Z,22.80
2022-10-13T12:17:02.044Z,22.95
2022-10-13T12:18:43.251Z,23.08
2022-10-13T12:19:45.292Z,23.13
2022-10-13T12:21:02.620Z,23.06
2022-10-13T12:22:12.464Z,22.88
2022-10-13T12:23:17.279Z,22.83
2022-10-13T12:24:23.085Z,22.89
2022-10-13T12:25:29.601Z,23.00
2022-10-13T12:26:34.159Z,23.07
2022-10-13T12:27:49.826Z,23.14
2022-10-13T12:28:54.135Z,23.05
2022-10-13T12:29:57.638Z,22.93
2022-10-13T12:31:00.133Z,22.92
2022-10-13T12:32:02.145Z,22.95
2022-10-13T12:33:25.593Z,23.03
2022-10-13T12:34:34.478Z,23.14
2022-10-13T12:35:36.469Z,23.20
2022-10-13T12:36:38.487Z,23.30
2022-10-13T12:37:41.219Z,23.30
2022-10-13T12:38:48.714Z,23.20
2022-10-13T12:39:52.070Z,23.14
2022-10-13T12:40:54.598Z,23.15
2022-10-13T12:42:01.822Z,23.26
2022-10-13T12:43:04.886Z,23.26
2022-10-13T12:44:14.320Z,23.26
2022-10-13T12:45:22.892Z,23.23
2022-10-13T12:46:41.395Z,23.15
2022-10-13T12:48:27.952Z,23.12
2022-10-13T12:49:32.091Z,23.10
2022-10-13T12:50:36.249Z,23.17
2022-10-13T12:51:38.926Z,23.30
2022-10-13T12:52:43.502Z,23.41
2022-10-13T12:53:47.395Z,23.48
2022-10-13T12:54:57.349Z,23.50
2022-10-13T12:56:01.622Z,23.47
2022-10-13T12:57:20.806Z,23.33
2022-10-13T12:58:34.316Z,23.16
2022-10-13T12:59:42.547Z,23.01
2022-10-13T13:00:44.546Z,22.85
2022-10-13T13:01:53.839Z,22.74
2022-10-13T13:03:03.180Z,22.59
2022-10-13T13:04:30.055Z,22.52
2022-10-13T13:05:36.743Z,22.51
2022-10-13T13:06:39.178Z,22.44
2022-10-13T13:07:52.324Z,22.43
2022-10-13T13:09:19.561Z,22.33
2022-10-13T13:10:21.526Z,22.34
2022-10-13T13:11:33.793Z,22.42
2022-10-13T13:12:39.572Z,22.53
2022-10-13T13:13:48.959Z,22.61
2022-10-13T13:14:54.394Z,22.73
2022-10-13T13:16:20.359Z,22.85
2022-10-13T13:18:50.927Z,22.80
2022-10-13T13:19:55.770Z,22.67
2022-10-13T13:20:57.841Z,22.58
2022-10-13T13:22:00.058Z,22.46
2022-10-13T13:23:02.036Z,22.41
2022-10-13T13:24:04.295Z,22.43
2022-10-13T13:25:18.273Z,22.40
2022-10-13T13:26:22.256Z,22.35
2022-10-13T13:27:33.933Z,22.39
2022-10-13T13:28:36.323Z,22.39
2022-10-13T13:29:38.295Z,22.35
2022-10-13T13:30:41.311Z,22.32
2022-10-13T13:31:43.112Z,22.35
2022-10-13T13:32:44.860Z,22.33
2022-10-13T13:33:47.657Z,22.15
2022-10-13T13:34:49.980Z,22.06
2022-10-13T13:35:52.594Z,22.02
2022-10-13T13:36:54.320Z,21.97
2022-10-13T13:37:59.219Z,21.86
2022-10-13T13:39:00.992Z,21.77
2022-10-13T13:40:07.602Z,21.73
2022-10-13T13:41:12.953Z,21.76
2022-10-13T13:42:14.953Z,21.56
2022-10-13T13:43:18.147Z,21.49
2022-10-13T13:44:19.830Z,21.31
2022-10-13T13:45:26.423Z,21.16
2022-10-13T13:46:28.943Z,21.06
2022-10-13T13:47:32.623Z,20.93
2022-10-13T13:48:34.401Z,20.80
2022-10-13T13:49:36.878Z,20.75
2022-10-13T13:50:39.608Z,20.68
2022-10-13T13:51:41.709Z,20.54
2022-10-13T13:52:43.394Z,20.59
2022-10-13T13:53:45.827Z,20.55
2022-10-13T13:54:51.734Z,20.36
2022-10-13T13:55:53.804Z,20.07
2022-10-13T13:56:58.806Z,19.86
2022-10-13T13:58:01.733Z,19.77
2022-10-13T13:59:03.453Z,19.70
2022-10-13T14:00:06.126Z,19.56
2022-10-13T14:01:14.394Z,19.53
2022-10-13T14:02:19.215Z,19.52
2022-10-13T14:03:21.076Z,19.44
2022-10-13T14:04:22.919Z,19.52
2022-10-13T14:05:24.932Z,19.52
2022-10-13T14:06:26.986Z,19.40
2022-10-13T14:07:28.775Z,19.32
2022-10-13T14:08:32.619Z,19.35
2022-10-13T14:09:34.621Z,19.23
2022-10-13T14:10:39.785Z,19.16
2022-10-13T14:11:41.639Z,19.01
2022-10-13T14:12:43.498Z,18.90
2022-10-13T14:13:45.265Z,18.72
2022-10-13T14:14:47.172Z,18.57
2022-10-13T14:15:59.307Z,18.52
2022-10-13T14:17:03.250Z,18.42
2022-10-13T14:18:08.984Z,18.27
2022-10-13T14:19:11.175Z,18.21
2022-10-13T14:20:13.045Z,18.10
2022-10-13T14:21:18.437Z,17.92
2022-10-13T14:22:20.969Z,17.81
2022-10-13T14:23:22.987Z,17.77
2022-10-13T14:24:24.949Z,17.79
2022-10-13T14:25:27.015Z,17.68
2022-10-13T14:26:29.124Z,17.58
2022-10-13T14:27:32.402Z,17.47
2022-10-13T14:28:34.842Z,17.46
2022-10-13T14:29:36.855Z,17.38
2022-10-13T14:30:40.124Z,17.28
2022-10-13T14:31:42.192Z,17.27
2022-10-13T14:32:44.111Z,17.22
2022-10-13T14:33:48.757Z,17.15